Data for 06/12/2008

Time Sea-Level Adjusted Pressure Absolute Pressure Temperature Relative Humidity Dew Point   
(mb) (inHg) (mb) (inHg) (C) (F) (%) (C) (F)
00:05 1015 29.97 844 24.92 2.7 36.8 164 9.8 49.6
00:10 1015 29.97 844 24.92 2.7 36.9 164 9.9 49.7
00:15 1015 29.97 844 24.92 2.8 37 164 9.9 49.9
00:20 1015 29.97 844 24.92 3 37.3 164 10.1 50.2
00:25 1015 29.97 844 24.92 3 37.4 164 10.2 50.3
00:30 1015 29.97 844 24.92 3.1 37.5 164 10.2 50.4
00:35 1015 29.97 844 24.92 3.2 37.7 164 10.3 50.6
00:40 1015 29.97 844 24.92 3.3 37.9 164 10.5 50.8
00:45 1015 29.97 844 24.92 3.3 37.9 164 10.4 50.8
00:50 1015 29.97 844 24.92 3 37.4 164 10.2 50.3
00:55 1015 29.97 844 24.92 2.7 36.9 164 9.9 49.8
01:00 1015 29.97 844 24.92 2.5 36.6 164 9.7 49.4
01:05 1015 29.97 844 24.92 2.5 36.6 164 9.7 49.4
01:10 1015 29.97 844 24.92 2.5 36.5 164 9.7 49.4
01:15 1014 29.94 844 24.92 2.5 36.5 164 9.6 49.4
01:20 1014 29.94 844 24.92 2.6 36.7 164 9.7 49.5
01:25 1015 29.97 844 24.92 2.6 36.8 164 9.8 49.6
01:30 1015 29.97 844 24.92 2.6 36.7 164 9.7 49.5
01:35 1015 29.97 844 24.92 2.4 36.3 164 9.5 49.1
01:40 1015 29.97 844 24.92 2.5 36.5 164 9.6 49.3
01:45 1014 29.94 844 24.92 2.5 36.6 164 9.7 49.4
01:50 1014 29.94 844 24.92 2.7 36.8 164 9.8 49.6
01:55 1014 29.94 844 24.92 2.8 37 164 9.9 49.8
02:00 1014 29.94 844 24.92 3 37.3 164 10.1 50.2
02:05 1014 29.94 844 24.92 3.3 37.9 164 10.4 50.8
02:10 1014 29.94 843 24.89 3.4 38.1 164 10.6 51
02:15 1014 29.94 843 24.89 3.5 38.4 164 10.7 51.3
02:20 1014 29.94 843 24.89 3.7 38.6 164 10.9 51.5
02:25 1014 29.94 843 24.89 3.6 38.6 164 10.8 51.5
02:30 1014 29.94 843 24.89 3.6 38.6 164 10.8 51.5
02:35 1014 29.94 843 24.89 3.7 38.7 164 10.9 51.7
02:40 1014 29.94 843 24.89 3.9 38.9 164 11.1 51.9
02:45 1014 29.94 843 24.89 3.9 39 164 11.1 51.9
02:50 1014 29.94 843 24.89 3.9 39.1 164 11.1 52
02:55 1014 29.94 843 24.89 3.9 39.1 164 11.1 52.1
03:00 1014 29.94 843 24.89 4 39.2 164 11.2 52.1
03:05 1014 29.94 843 24.89 4 39.3 164 11.2 52.2
03:10 1014 29.94 843 24.89 4.1 39.4 164 11.3 52.3
03:15 1014 29.94 843 24.89 4.1 39.4 164 11.3 52.4
03:20 1014 29.94 843 24.89 4.1 39.5 164 11.3 52.4
03:25 1014 29.94 843 24.89 4.2 39.5 164 11.4 52.5
03:30 1014 29.94 843 24.89 4.1 39.5 164 11.4 52.4
03:35 1014 29.94 843 24.89 4.2 39.6 164 11.4 52.6
03:40 1014 29.94 843 24.89 4.3 39.7 164 11.5 52.7
03:45 1014 29.94 843 24.89 4.3 39.7 164 11.5 52.7
03:50 1014 29.94 843 24.89 4.3 39.8 164 11.5 52.8
03:55 1014 29.94 843 24.89 4.3 39.7 164 11.5 52.7
04:00 1014 29.94 843 24.89 4.2 39.5 164 11.4 52.5
04:05 1014 29.94 844 24.92 4.1 39.3 164 11.3 52.3
04:10 1015 29.97 844 24.92 4.1 39.3 164 11.3 52.3
04:15 1015 29.97 844 24.92 3.7 38.6 164 10.9 51.5
04:20 1015 29.97 844 24.92 3.3 37.9 164 10.4 50.8
04:25 1015 29.97 844 24.92 3.2 37.7 164 10.3 50.6
04:30 1015 29.97 844 24.92 3.2 37.8 164 10.4 50.7
04:35 1015 29.97 844 24.92 3.2 37.8 164 10.4 50.6
04:40 1015 29.97 844 24.92 3.2 37.7 164 10.3 50.6
04:45 1015 29.97 844 24.92 3.1 37.5 164 10.2 50.4
04:50 1015 29.97 844 24.92 2.9 37.2 164 10 50
04:55 1015 29.97 844 24.92 2.7 36.9 164 9.9 49.7
05:00 1015 29.97 844 24.92 2.7 36.8 164 9.8 49.6
05:05 1015 29.97 845 24.95 2.6 36.7 164 9.7 49.5
05:10 1015 29.97 845 24.95 2.4 36.4 164 9.6 49.2
05:15 1016 30 845 24.95 2.3 36.2 164 9.5 49
05:20 1016 30 845 24.95 2.1 35.8 164 9.2 48.6
05:25 1016 30 845 24.95 2 35.5 164 9.1 48.3
05:30 1016 30 845 24.95 1.8 35.3 164 8.9 48
05:35 1016 30 845 24.95 1.5 34.7 164 8.6 47.5
05:40 1016 30 845 24.95 1.3 34.4 164 8.4 47.1
05:45 1016 30 845 24.95 1.3 34.3 164 8.3 47
05:50 1016 30 845 24.95 1.3 34.3 164 8.3 47
05:55 1016 30 845 24.95 1.3 34.3 164 8.3 47
06:00 1016 30 845 24.95 1.2 34.1 164 8.3 46.9
06:05 1016 30 845 24.95 1.1 33.9 164 8.1 46.7
06:10 1016 30 845 24.95 0.8 33.4 164 7.9 46.1
06:15 1016 30 845 24.95 0.7 33.2 164 7.7 45.9
06:20 1016 30 845 24.95 0.7 33.3 164 7.7 45.9
06:25 1016 30 845 24.95 0.7 33.2 164 7.7 45.9
06:30 1016 30 845 24.95 0.6 33 164 7.6 45.7
06:35 1016 30 845 24.95 0.6 33.2 164 7.7 45.8
06:40 1016 30 845 24.95 0.8 33.4 164 7.9 46.1
06:45 1016 30 845 24.95 0.9 33.7 164 8 46.4
06:50 1016 30 845 24.95 0.9 33.5 164 7.9 46.3
06:55 1016 30 845 24.95 0.9 33.7 164 8 46.4
07:00 1016 30 845 24.95 1 33.9 164 8.1 46.6
07:05 1016 30 845 24.95 1.2 34.1 164 8.2 46.8
07:10 1016 30 845 24.95 1.3 34.3 164 8.4 47.1
07:15 1016 30 845 24.95 1.5 34.6 164 8.5 47.4
07:20 1016 30 845 24.95 1.7 35 164 8.8 47.8
07:25 1016 30 845 24.95 1.9 35.5 164 9 48.3
07:30 1016 30 845 24.95 2.2 35.9 164 9.3 48.8
07:35 1016 30 845 24.95 2.5 36.6 164 9.7 49.5
07:40 1016 30 845 24.95 2.9 37.3 164 10.1 50.1
07:45 1016 30 845 24.95 3.2 37.8 164 10.4 50.7
07:50 1016 30 845 24.95 3.5 38.3 164 10.7 51.2
07:55 1016 30 845 24.95 3.7 38.6 164 10.8 51.5
08:00 1016 30 845 24.95 3.8 38.8 164 11 51.7
08:05 1016 30 845 24.95 3.9 38.9 164 11.1 51.9
08:10 1016 30 845 24.95 3.9 39 164 11.1 52
08:15 1016 30 845 24.95 3.9 39 164 11.1 51.9
08:20 1016 30 845 24.95 3.9 39.1 164 11.1 52.1
08:25 1016 30 845 24.95 4.1 39.3 164 11.3 52.3
08:30 1016 30 845 24.95 4.2 39.5 164 11.4 52.5
08:35 1016 30 846 24.98 4.3 39.7 164 11.5 52.7
08:40 1016 30 846 24.98 4.4 39.9 164 11.6 52.9
08:45 1016 30 846 24.98 4.5 40 94 3.6 38.5
08:50 1017 30.03 846 24.98 4.5 40 94 3.6 38.5
08:55 1017 30.03 846 24.98 4.5 40.2 94 3.7 38.6
09:00 1017 30.03 846 24.98 4.6 40.3 94 3.7 38.7
09:05 1017 30.03 846 24.98 4.8 40.6 95 4.1 39.3
09:10 1017 30.03 846 24.98 4.9 40.7 95 4.1 39.4
09:15 1017 30.03 846 24.98 4.9 40.8 95 4.1 39.4
09:20 1017 30.03 846 24.98 4.9 40.8 95 4.2 39.5
09:25 1017 30.03 846 24.98 4.8 40.7 96 4.2 39.5
09:30 1017 30.03 846 24.98 4.9 40.8 96 4.2 39.6
09:35 1017 30.03 846 24.98 5 41 96 4.4 39.9
09:40 1017 30.03 846 24.98 5.1 41.2 96 4.4 40
09:45 1017 30.03 847 25.01 5.2 41.4 95 4.5 40.2
09:50 1017 30.03 847 25.01 5.3 41.5 95 4.6 40.2
09:55 1017 30.03 847 25.01 5.4 41.8 94 4.6 40.3
10:00 1017 30.03 847 25.01 5.5 41.9 93 4.5 40.1
10:05 1017 30.03 847 25.01 5.6 42 91 4.2 39.5
10:10 1017 30.03 847 25.01 5.5 42 90 4 39.3
10:15 1017 30.03 847 25.01 5.6 42.1 90 4 39.2
10:20 1018 30.06 847 25.01 5.3 41.6 90 3.9 38.9
10:25 1018 30.06 847 25.01 5.3 41.5 91 4 39.1
10:30 1018 30.06 847 25.01 5.1 41.2 91 3.8 38.9
10:35 1018 30.06 847 25.01 5.1 41.2 92 3.9 39.1
10:40 1018 30.06 847 25.01 5.3 41.5 92 4.1 39.4
10:45 1018 30.06 847 25.01 5.3 41.5 92 4 39.3
10:50 1018 30.06 847 25.01 5.3 41.5 93 4.2 39.5
10:55 1018 30.06 847 25.01 5.4 41.6 92 4.1 39.4
11:00 1018 30.06 847 25.01 5.3 41.6 92 4.1 39.3
11:05 1018 30.06 847 25.01 5.4 41.8 91 4.1 39.3
11:10 1018 30.06 847 25.01 5.6 42 91 4.2 39.5
11:15 1018 30.06 847 25.01 5.6 42.1 90 4.1 39.4
11:20 1018 30.06 847 25.01 5.5 41.9 90 4 39.2
11:25 1018 30.06 847 25.01 5.6 42.1 91 4.3 39.7
11:30 1018 30.06 847 25.01 5.9 42.5 91 4.5 40.1
11:35 1018 30.06 847 25.01 6.1 42.9 91 4.7 40.5
11:40 1018 30.06 847 25.01 6.4 43.5 91 5 40.9
11:45 1018 30.06 847 25.01 6.6 43.9 90 5.1 41.1
11:50 1018 30.06 847 25.01 6.8 44.2 89 5 41.1
11:55 1018 30.06 847 25.01 6.9 44.4 86 4.8 40.6
12:00 1018 30.06 847 25.01 7.2 44.9 86 5 41
12:05 1018 30.06 847 25.01 7.4 45.2 85 5 41
12:10 1018 30.06 847 25.01 7.5 45.5 83 4.9 40.8
12:15 1018 30.06 847 25.01 7.6 45.6 82 4.7 40.5
12:20 1018 30.06 847 25.01 7.3 45.1 83 4.6 40.3
12:25 1018 30.06 847 25.01 6.9 44.4 86 4.7 40.4
12:30 1018 30.06 847 25.01 6.8 44.2 87 4.7 40.4
12:35 1018 30.06 847 25.01 6.4 43.5 87 4.4 39.9
12:40 1018 30.06 847 25.01 6.2 43.2 88 4.3 39.7
12:45 1018 30.06 847 25.01 6.3 43.3 86 4.2 39.5
12:50 1018 30.06 848 25.04 6.4 43.5 86 4.3 39.7
12:55 1018 30.06 848 25.04 6.5 43.7 86 4.3 39.8
13:00 1018 30.06 848 25.04 6.4 43.4 85 4.1 39.3
13:05 1019 30.09 848 25.04 6.3 43.3 88 4.4 39.8
13:10 1019 30.09 848 25.04 6.6 43.8 86 4.4 39.9
13:15 1019 30.09 848 25.04 7.3 45.1 84 4.8 40.6
13:20 1019 30.09 848 25.04 8.1 46.5 83 5.3 41.5
13:25 1019 30.09 848 25.04 8.5 47.3 81 5.4 41.7
13:30 1019 30.09 848 25.04 8.9 48 75 4.8 40.6
13:35 1019 30.09 848 25.04 8.8 47.9 72 4.1 39.3
13:40 1019 30.09 848 25.04 8.6 47.4 71 3.7 38.6
13:45 1019 30.09 848 25.04 8.4 47.1 74 4.1 39.4
13:50 1019 30.09 848 25.04 8.1 46.5 79 4.7 40.4
13:55 1019 30.09 848 25.04 7.7 45.9 81 4.7 40.4
14:00 1019 30.09 848 25.04 7.6 45.6 82 4.8 40.6
14:05 1019 30.09 848 25.04 7.2 45 82 4.4 40
14:10 1019 30.09 848 25.04 7.1 44.7 84 4.6 40.3
14:15 1019 30.09 848 25.04 7.3 45.2 86 5.1 41.2
14:20 1019 30.09 848 25.04 7.7 45.8 84 5.2 41.4
14:25 1019 30.09 848 25.04 7.7 45.8 86 5.5 41.8
14:30 1019 30.09 848 25.04 8.4 47.1 84 5.9 42.6
14:35 1019 30.09 848 25.04 9 48.1 81 5.9 42.6
14:40 1019 30.09 848 25.04 9.2 48.5 79 5.7 42.3
14:45 1019 30.09 849 25.07 9.2 48.5 78 5.5 41.8
14:50 1019 30.09 849 25.07 9.4 48.9 73 4.9 40.8
14:55 1019 30.09 849 25.07 9.5 49.1 68 3.9 39.1
15:00 1019 30.09 849 25.07 9.4 48.9 66 3.4 38.2
15:05 1019 30.09 849 25.07 9.6 49.2 67 3.8 38.9
15:10 1019 30.09 849 25.07 9.4 48.9 68 3.8 38.8
15:15 1019 30.09 848 25.04 9.5 49.1 68 3.9 39.1
15:20 1019 30.09 848 25.04 10.2 50.3 65 3.9 39.1
15:25 1019 30.09 848 25.04 10.4 50.8 63 3.8 38.9
15:30 1019 30.09 848 25.04 10.6 51 61 3.4 38.1
15:35 1019 30.09 848 25.04 10.5 50.8 61 3.2 37.8
15:40 1019 30.09 848 25.04 10 50 62 3.1 37.7
15:45 1019 30.09 848 25.04 10.2 50.4 61 3 37.4
15:50 1019 30.09 848 25.04 10.8 51.5 57 2.8 37.1
15:55 1019 30.09 848 25.04 11.1 52 56 2.8 37
16:00 1019 30.09 848 25.04 11.2 52.1 53 2 35.6
16:05 1019 30.09 848 25.04 11.2 52.1 51 1.4 34.4
16:10 1019 30.09 848 25.04 11.2 52.2 48 0.7 33.3
16:15 1019 30.09 848 25.04 11.3 52.3 49 1.1 33.9
16:20 1019 30.09 848 25.04 11.4 52.4 49 1.1 34
16:25 1019 30.09 848 25.04 11.5 52.6 48 1 33.8
16:30 1019 30.09 848 25.04 11.4 52.5 47 0.5 32.9
16:35 1019 30.09 848 25.04 11.2 52.2 47 0.3 32.5
16:40 1019 30.09 849 25.07 11.1 52 48 0.6 33.1
16:45 1019 30.09 849 25.07 11 51.8 49 0.8 33.5
16:50 1020 30.12 849 25.07 11 51.8 51 1.2 34.2
16:55 1020 30.12 849 25.07 10.9 51.7 50 0.9 33.7
17:00 1020 30.12 849 25.07 11 51.9 48 0.5 32.9
17:05 1020 30.12 849 25.07 11.2 52.2 47 0.5 32.8
17:10 1020 30.12 849 25.07 11.4 52.4 48 0.7 33.3
17:15 1020 30.12 849 25.07 11.5 52.7 46 0.3 32.5
17:20 1020 30.12 849 25.07 11.7 53 46 0.4 32.8
17:25 1020 30.12 849 25.07 11.7 53.1 45 0.1 32.2
17:30 1020 30.12 849 25.07 11.7 53 44 0 32.1
17:35 1020 30.12 849 25.07 11.7 53 44 -0 32
17:40 1020 30.12 849 25.07 11.7 53 45 0.1 32.2
17:45 1020 30.12 849 25.07 11.6 52.9 45 0.1 32.2
17:50 1020 30.12 849 25.07 11.6 52.8 46 0.3 32.6
17:55 1020 30.12 849 25.07 11.5 52.8 44 -0.1 31.8
18:00 1020 30.12 849 25.07 11.5 52.8 43 -0.4 31.3
18:05 1020 30.12 849 25.07 11.5 52.7 45 0 32.1
18:10 1020 30.12 849 25.07 11.4 52.5 46 0.4 32.7
18:15 1020 30.12 849 25.07 11.3 52.4 46 0.2 32.4
18:20 1020 30.12 849 25.07 11.3 52.3 47 0.4 32.7
18:25 1020 30.12 849 25.07 11.2 52.2 48 0.6 33
18:30 1020 30.12 849 25.07 11.2 52.1 47 0.2 32.4
18:35 1020 30.12 849 25.07 11.2 52.1 48 0.5 32.9
18:40 1020 30.12 849 25.07 11.2 52.1 48 0.6 33.1
18:45 1020 30.12 849 25.07 11.2 52.1 48 0.6 33.1
18:50 1020 30.12 849 25.07 11.3 52.3 48 0.6 33.1
18:55 1020 30.12 849 25.07 11.3 52.4 48 0.7 33.2
19:00 1020 30.12 849 25.07 11.4 52.6 48 0.8 33.5
19:05 1020 30.12 849 25.07 11.5 52.7 48 1 33.7
19:10 1020 30.12 849 25.07 11.5 52.7 49 1.2 34.1
19:15 1020 30.12 849 25.07 11.5 52.7 49 1.2 34.2
19:20 1020 30.12 849 25.07 11.5 52.8 49 1.3 34.4
19:25 1020 30.12 849 25.07 11.6 52.9 50 1.5 34.7
19:30 1020 30.12 849 25.07 11.6 52.9 49 1.3 34.4
19:35 1020 30.12 849 25.07 11.7 53.1 48 1.2 34.2
19:40 1020 30.12 849 25.07 11.9 53.4 46 0.6 33.1
19:45 1020 30.12 849 25.07 12.1 53.7 46 0.7 33.3
19:50 1020 30.12 849 25.07 12.2 53.9 45 0.7 33.3
19:55 1020 30.12 849 25.07 12.2 53.9 45 0.7 33.2
20:00 1020 30.12 849 25.07 12.1 53.8 46 1 33.8
20:05 1020 30.12 849 25.07 12 53.5 47 1 33.8
20:10 1020 30.12 850 25.1 11.8 53.2 48 1.2 34.2
20:15 1020 30.12 850 25.1 11.6 52.8 50 1.5 34.7
20:20 1020 30.12 850 25.1 11.4 52.5 50 1.4 34.6
20:25 1020 30.12 850 25.1 11.2 52.2 51 1.5 34.6
20:30 1020 30.12 850 25.1 11.1 52 51 1.4 34.5
20:35 1020 30.12 850 25.1 11 51.9 51 1.3 34.3
20:40 1020 30.12 850 25.1 10.9 51.7 52 1.4 34.6
20:45 1020 30.12 850 25.1 10.7 51.3 53 1.6 34.9
20:50 1021 30.15 850 25.1 10.3 50.6 54 1.6 34.9
20:55 1021 30.15 850 25.1 10.2 50.3 55 1.6 35
21:00 1021 30.15 850 25.1 10.1 50.1 56 1.7 35.1
21:05 1021 30.15 850 25.1 9.7 49.5 64 3.2 37.8
21:10 1021 30.15 850 25.1 9.2 48.6 65 3 37.5
21:15 1021 30.15 850 25.1 9.1 48.4 65 2.9 37.3
21:20 1021 30.15 850 25.1 9.1 48.3 64 2.6 36.7
21:25 1021 30.15 850 25.1 9.1 48.4 65 2.9 37.1
21:30 1021 30.15 850 25.1 8.9 48 65 2.6 36.8
21:35 1021 30.15 850 25.1 9 48.2 63 2.3 36.2
21:40 1021 30.15 850 25.1 9.1 48.4 63 2.4 36.4
21:45 1021 30.15 850 25.1 9.1 48.3 63 2.4 36.3
21:50 1021 30.15 850 25.1 8.9 48 65 2.6 36.7
21:55 1021 30.15 850 25.1 8.7 47.7 65 2.4 36.4
22:00 1021 30.15 850 25.1 8.8 47.8 64 2.3 36.2
22:05 1021 30.15 850 25.1 8.8 47.8 65 2.5 36.5
22:10 1021 30.15 850 25.1 8.7 47.6 66 2.6 36.7
22:15 1021 30.15 851 25.13 8.5 47.3 67 2.8 37
22:20 1021 30.15 851 25.13 8.4 47 67 2.6 36.8
22:25 1021 30.15 851 25.13 8.5 47.2 67 2.6 36.7
22:30 1021 30.15 851 25.13 8.5 47.2 67 2.8 37
22:35 1021 30.15 851 25.13 8.3 46.9 69 2.9 37.3
22:40 1021 30.15 851 25.13 8.2 46.8 69 2.9 37.2
22:45 1021 30.15 851 25.13 8.2 46.8 68 2.7 36.9
22:50 1021 30.15 851 25.13 8.4 47.2 65 2.3 36.2
22:55 1021 30.15 851 25.13 8.7 47.6 65 2.4 36.4
23:00 1021 30.15 851 25.13 8.5 47.2 68 2.8 37.1
23:05 1021 30.15 851 25.13 8.1 46.6 69 2.8 37
23:10 1021 30.15 851 25.13 8.1 46.5 68 2.6 36.6
23:15 1021 30.15 851 25.13 8.2 46.7 67 2.5 36.4
23:20 1021 30.15 851 25.13 8.1 46.5 68 2.6 36.7
23:25 1021 30.15 851 25.13 7.9 46.1 69 2.5 36.5
23:30 1021 30.15 851 25.13 7.7 45.8 70 2.5 36.6
23:35 1021 30.15 851 25.13 7.3 45.1 73 2.7 36.9
23:40 1021 30.15 851 25.13 6.7 44.1 76 2.7 36.9
23:45 1021 30.15 851 25.13 6.4 43.5 76 2.5 36.5
23:50 1021 30.15 851 25.13 6.4 43.5 74 2.1 35.8
23:55 1021 30.15 851 25.13 6.5 43.7 73 2.1 35.8
24:00 1021 30.15 851 25.13 6.3 43.4 75 2.1 35.9